Aurora Springs, Missouri
Current Conditions -  °F | °C
As of 12:15 PM on Friday 31 Oct 2014 (Local Time) from KAIZ Reporting Station
Clear Clear  
Wind Chill: 39°   Ceiling: Unl
Heat Index: 45°   Visibility: 10mi
Dew Point: 18°   Wind: 10mph
Humidity: 34%   Direction: 20°NNE
Pressure: 30.38"   Gusts: 23mph
Location:  38.333°N, 92.5524°W
Report Text: KAIZ 311715Z AUTO 02009G20KT 10SM CLR 07/M08 A3038 RMK AO1
Loading
Personal Weather Stations






























Interactive Weather Map New forecast layout! Learn more

10-Day Weather Forecast

Advertisements
Track Severe Weather on mobile